Time;durP1;ratioP1;P1;durP2;ratioP2;P2;SDS_P1;SDS_P2;PMS_P1;PMS_P2;Temp;Humidity;BMP_temperature;BMP_pressure;BME280_temperature;BME280_humidity;BME280_pressure;Samples;Min_cycle;Max_cycle;Signal;HPM_P1;HPM_P2
2022/03/26 00:00:21;;;;;;;61.83;33.75;;;6.20;84.30;;;;;;5010658;28;20045;-41
2022/03/26 00:02:50;;;;;;;70.65;37.58;;;6.20;84.80;;;;;;5011330;28;20057;-41
2022/03/26 00:05:17;;;;;;;59.25;32.00;;;6.20;86.10;;;;;;5010028;28;20262;-40
2022/03/26 00:07:43;;;;;;;60.80;32.80;;;6.10;86.90;;;;;;5011188;28;20046;-41
2022/03/26 00:10:11;;;;;;;56.55;30.95;;;6.10;87.60;;;;;;5012130;28;20042;-41
2022/03/26 00:12:39;;;;;;;54.00;29.38;;;6.10;87.80;;;;;;5012068;28;20053;-42
2022/03/26 00:15:06;;;;;;;58.10;30.55;;;6.00;88.00;;;;;;5011036;28;20425;-41
2022/03/26 00:17:33;;;;;;;58.60;32.22;;;6.00;88.20;;;;;;5012698;28;20049;-41
2022/03/26 00:20:01;;;;;;;52.72;28.65;;;6.00;88.20;;;;;;5011702;28;20132;-41
2022/03/26 00:22:28;;;;;;;58.45;31.35;;;6.00;88.00;;;;;;5010830;28;20324;-40
2022/03/26 00:24:54;;;;;;;67.72;33.05;;;5.90;87.80;;;;;;5012314;28;20137;-40
2022/03/26 00:27:21;;;;;;;58.90;33.53;;;5.90;88.00;;;;;;5012184;28;20056;-40
2022/03/26 00:29:48;;;;;;;56.67;31.75;;;5.90;88.00;;;;;;5011551;28;20054;-41
2022/03/26 00:32:14;;;;;;;61.05;31.45;;;5.90;87.90;;;;;;5010595;28;20049;-41
2022/03/26 00:34:41;;;;;;;59.97;33.25;;;5.90;87.90;;;;;;5011291;28;20120;-42
2022/03/26 00:37:09;;;;;;;72.53;37.80;;;5.90;87.90;;;;;;5013848;28;20054;-42
2022/03/26 00:39:38;;;;;;;68.25;36.85;;;5.80;88.20;;;;;;5014905;28;20038;-41
2022/03/26 00:42:08;;;;;;;66.70;34.78;;;5.80;88.80;;;;;;5014815;28;20077;-41
2022/03/26 00:44:35;;;;;;;65.97;36.28;;;5.80;88.80;;;;;;5014984;28;20058;-41
2022/03/26 00:47:02;;;;;;;64.70;35.08;;;5.80;88.80;;;;;;5016002;28;20129;-42
2022/03/26 00:49:28;;;;;;;65.32;34.42;;;5.70;88.70;;;;;;5015831;28;20038;-41
2022/03/26 00:51:55;;;;;;;58.50;31.90;;;5.70;88.70;;;;;;5014912;28;20038;-41
2022/03/26 00:54:24;;;;;;;71.85;37.63;;;5.70;88.60;;;;;;4995645;28;20057;-41
2022/03/26 00:56:51;;;;;;;81.70;40.15;;;5.70;89.30;;;;;;5001538;28;20048;-41
2022/03/26 00:59:17;;;;;;;75.65;37.65;;;5.60;90.00;;;;;;5015063;28;20050;-40
2022/03/26 01:01:44;;;;;;;62.47;33.20;;;5.60;90.10;;;;;;5014779;28;20401;-40
2022/03/26 01:04:12;;;;;;;71.90;37.03;;;5.60;90.20;;;;;;5015856;28;20046;-40
2022/03/26 01:06:38;;;;;;;63.05;35.00;;;5.60;90.10;;;;;;5015307;28;20040;-40
2022/03/26 01:09:06;;;;;;;61.15;32.90;;;5.50;90.00;;;;;;5014705;28;20045;-42
2022/03/26 01:11:35;;;;;;;67.80;37.20;;;5.50;89.80;;;;;;5015420;28;20505;-41
2022/03/26 01:14:02;;;;;;;65.57;34.65;;;5.50;89.90;;;;;;5014889;28;20049;-41
2022/03/26 01:16:30;;;;;;;70.85;36.47;;;5.50;89.80;;;;;;5014306;28;20462;-41
2022/03/26 01:18:57;;;;;;;67.13;35.75;;;5.40;89.80;;;;;;5014630;28;20390;-41
2022/03/26 01:21:23;;;;;;;68.47;35.10;;;5.40;90.10;;;;;;5015100;28;20388;-41
2022/03/26 01:23:50;;;;;;;64.82;32.92;;;5.40;90.10;;;;;;5013311;28;20050;-41
2022/03/26 01:26:17;;;;;;;59.88;32.70;;;5.30;90.30;;;;;;5013364;28;20042;-41
2022/03/26 01:28:45;;;;;;;68.82;35.50;;;5.30;90.00;;;;;;5015819;28;20428;-41
2022/03/26 01:31:12;;;;;;;64.63;36.28;;;5.30;90.00;;;;;;5014680;28;20517;-41
2022/03/26 01:33:38;;;;;;;65.68;34.42;;;5.30;90.20;;;;;;5014168;28;20046;-40
2022/03/26 01:36:06;;;;;;;66.55;33.95;;;5.20;90.40;;;;;;5014078;28;20046;-40
2022/03/26 01:38:33;;;;;;;63.25;33.92;;;5.20;90.40;;;;;;5015201;28;20050;-41
2022/03/26 01:41:00;;;;;;;65.53;34.35;;;5.20;90.50;;;;;;5014336;28;20121;-41
2022/03/26 01:43:27;;;;;;;63.22;34.75;;;5.20;90.40;;;;;;5014611;28;20077;-41
2022/03/26 01:45:55;;;;;;;56.30;29.50;;;5.20;90.40;;;;;;5015183;28;20054;-41
2022/03/26 01:48:21;;;;;;;63.28;33.65;;;5.20;90.50;;;;;;5013933;28;20053;-41
2022/03/26 01:50:48;;;;;;;61.55;34.03;;;5.10;90.60;;;;;;5007312;28;20074;-41
2022/03/26 01:53:15;;;;;;;68.00;33.95;;;5.10;90.60;;;;;;5014046;28;20125;-40
2022/03/26 01:55:41;;;;;;;67.50;36.85;;;5.10;90.60;;;;;;5013220;28;20038;-41
2022/03/26 01:58:09;;;;;;;75.22;38.00;;;5.10;90.80;;;;;;5014821;28;20054;-41
2022/03/26 02:00:36;;;;;;;66.20;34.50;;;5.00;91.30;;;;;;5013625;28;20042;-40
2022/03/26 02:03:04;;;;;;;63.58;34.50;;;5.00;91.60;;;;;;5014453;28;20077;-42
2022/03/26 02:05:31;;;;;;;65.03;32.78;;;4.90;91.50;;;;;;5014489;28;20069;-40
2022/03/26 02:07:57;;;;;;;66.53;33.65;;;4.90;91.40;;;;;;5014269;28;20393;-40
2022/03/26 02:10:24;;;;;;;68.82;34.05;;;4.90;91.40;;;;;;5013566;28;20054;-40
2022/03/26 02:12:51;;;;;;;63.65;33.10;;;4.90;91.40;;;;;;5014409;28;20038;-40
2022/03/26 02:15:17;;;;;;;64.00;34.05;;;4.90;91.40;;;;;;5014555;28;20050;-41
2022/03/26 02:17:44;;;;;;;61.03;31.63;;;4.90;91.50;;;;;;5013554;28;20046;-39
2022/03/26 02:20:13;;;;;;;78.28;38.20;;;4.80;91.50;;;;;;5010156;28;20084;-41
2022/03/26 02:22:40;;;;;;;63.08;34.17;;;4.80;91.90;;;;;;5013929;28;20069;-40
2022/03/26 02:25:08;;;;;;;73.05;36.42;;;4.80;91.90;;;;;;5012578;28;20054;-40
2022/03/26 02:27:34;;;;;;;64.88;34.75;;;4.80;91.90;;;;;;5012594;28;20046;-40
2022/03/26 02:30:02;;;;;;;63.72;34.25;;;4.70;91.80;;;;;;5014144;28;20490;-41
2022/03/26 02:32:29;;;;;;;68.68;36.47;;;4.70;91.70;;;;;;5012435;28;20115;-40
2022/03/26 02:34:56;;;;;;;67.90;34.60;;;4.70;91.80;;;;;;5013048;28;20049;-42
2022/03/26 02:37:24;;;;;;;61.83;32.75;;;4.70;91.80;;;;;;5012706;28;20057;-40
2022/03/26 02:39:51;;;;;;;69.30;35.60;;;4.70;91.70;;;;;;5012773;28;20132;-41
2022/03/26 02:42:18;;;;;;;65.30;33.88;;;4.70;91.70;;;;;;5014275;28;20089;-43
2022/03/26 02:44:45;;;;;;;66.75;34.88;;;4.70;91.70;;;;;;5012349;28;20355;-41
2022/03/26 02:47:11;;;;;;;64.25;35.72;;;4.70;91.70;;;;;;5013670;28;20045;-42
2022/03/26 02:49:38;;;;;;;66.13;34.97;;;4.60;91.60;;;;;;5012145;28;20405;-41
2022/03/26 02:52:05;;;;;;;68.80;36.35;;;4.70;91.60;;;;;;5012459;28;20056;-42
2022/03/26 02:54:35;;;;;;;65.22;34.03;;;4.60;91.70;;;;;;5013603;28;20038;-41
2022/03/26 02:57:02;;;;;;;73.90;35.33;;;4.60;91.80;;;;;;5012420;28;20046;-41
2022/03/26 02:59:29;;;;;;;67.60;34.53;;;4.60;91.80;;;;;;5013098;28;20541;-41
2022/03/26 03:01:55;;;;;;;73.47;37.55;;;4.60;91.80;;;;;;5013549;28;20042;-41
2022/03/26 03:04:22;;;;;;;76.35;38.25;;;4.50;92.00;;;;;;5013462;28;20442;-42
2022/03/26 03:06:49;;;;;;;71.15;34.80;;;4.50;92.10;;;;;;5012205;28;20046;-41
2022/03/26 03:09:15;;;;;;;81.43;40.72;;;4.50;92.20;;;;;;5013050;28;20052;-41
2022/03/26 03:11:43;;;;;;;67.93;35.60;;;4.50;92.50;;;;;;5012238;28;20046;-41
2022/03/26 03:14:10;;;;;;;68.70;35.67;;;4.50;92.70;;;;;;5013474;28;20061;-40
2022/03/26 03:16:37;;;;;;;72.47;36.92;;;4.40;92.60;;;;;;5012918;28;20053;-40
2022/03/26 03:19:04;;;;;;;86.75;40.95;;;4.40;92.90;;;;;;5013166;28;20046;-41
2022/03/26 03:21:31;;;;;;;80.32;39.05;;;4.40;93.00;;;;;;5012025;28;20038;-41
2022/03/26 03:23:58;;;;;;;81.30;37.47;;;4.30;93.60;;;;;;4999918;28;20060;-41
2022/03/26 03:26:25;;;;;;;67.13;34.78;;;4.30;93.40;;;;;;5002683;28;20050;-42
2022/03/26 03:28:53;;;;;;;64.55;33.58;;;4.30;93.20;;;;;;5012050;28;20108;-41
2022/03/26 03:31:19;;;;;;;70.90;36.10;;;4.30;93.10;;;;;;5012242;28;20046;-41
2022/03/26 03:33:46;;;;;;;75.60;37.75;;;4.30;93.10;;;;;;5012123;28;20045;-42
2022/03/26 03:36:13;;;;;;;84.03;40.30;;;4.30;93.40;;;;;;5011788;28;20050;-42
2022/03/26 03:38:40;;;;;;;73.65;36.08;;;4.30;94.00;;;;;;5012737;28;20052;-41
2022/03/26 03:41:06;;;;;;;64.60;32.92;;;4.30;94.60;;;;;;5011408;28;20053;-41
2022/03/26 03:43:33;;;;;;;71.47;36.75;;;4.20;94.70;;;;;;5012786;28;20063;-41
2022/03/26 03:46:01;;;;;;;64.80;31.98;;;4.20;94.50;;;;;;5011992;28;20052;-40
2022/03/26 03:48:28;;;;;;;68.78;34.30;;;4.20;94.40;;;;;;5012899;28;20096;-41
2022/03/26 03:50:55;;;;;;;65.57;31.98;;;4.20;94.50;;;;;;5012732;28;20041;-41
2022/03/26 03:53:21;;;;;;;65.07;32.42;;;4.20;94.50;;;;;;5010951;28;20049;-41
2022/03/26 03:55:48;;;;;;;63.30;31.30;;;4.10;94.30;;;;;;5012891;28;20108;-41
2022/03/26 03:58:15;;;;;;;78.40;38.97;;;4.10;94.30;;;;;;5011745;28;20462;-41
2022/03/26 04:00:41;;;;;;;76.60;39.60;;;4.10;94.40;;;;;;5012907;28;20044;-41
2022/03/26 04:03:09;;;;;;;80.63;39.53;;;4.10;94.90;;;;;;5012647;28;20046;-41
2022/03/26 04:05:36;;;;;;;67.68;32.97;;;4.10;95.50;;;;;;5012346;28;20046;-41
2022/03/26 04:08:03;;;;;;;83.72;39.78;;;4.00;95.20;;;;;;5011278;28;20386;-40
2022/03/26 04:10:30;;;;;;;79.32;38.95;;;4.00;95.60;;;;;;5011490;28;20049;-41
2022/03/26 04:12:57;;;;;;;81.72;39.75;;;4.00;95.90;;;;;;5016251;28;20041;-41
2022/03/26 04:15:24;;;;;;;71.25;35.63;;;4.00;96.20;;;;;;5016080;28;20470;-42
2022/03/26 04:17:52;;;;;;;76.35;37.85;;;3.90;96.00;;;;;;5007182;28;20046;-41
2022/03/26 04:20:20;;;;;;;64.65;33.15;;;3.90;96.00;;;;;;5013938;28;20441;-41
2022/03/26 04:22:47;;;;;;;87.85;41.10;;;3.90;95.80;;;;;;5015497;28;20486;-40
2022/03/26 04:25:14;;;;;;;89.20;42.97;;;3.90;95.80;;;;;;5015544;28;20049;-41
2022/03/26 04:27:44;;;;;;;70.75;36.08;;;3.90;95.90;;;;;;5015441;28;20045;-41
2022/03/26 04:30:11;;;;;;;70.28;35.85;;;3.90;95.80;;;;;;5015369;28;20050;-41
2022/03/26 04:32:38;;;;;;;80.10;38.85;;;3.90;95.50;;;;;;5016254;28;20381;-41
2022/03/26 04:35:05;;;;;;;74.88;37.70;;;3.90;95.50;;;;;;5016018;28;20133;-41
2022/03/26 04:37:34;;;;;;;77.60;37.90;;;3.90;95.40;;;;;;5015292;28;20129;-41
2022/03/26 04:40:01;;;;;;;85.85;41.00;;;3.90;95.30;;;;;;5015112;28;20061;-41
2022/03/26 04:42:27;;;;;;;84.95;42.13;;;4.00;95.40;;;;;;5016471;28;20081;-41
2022/03/26 04:44:54;;;;;;;77.28;39.97;;;3.80;95.70;;;;;;5015834;28;20044;-42
2022/03/26 04:47:21;;;;;;;85.78;42.25;;;3.80;95.80;;;;;;5015230;28;20141;-40
2022/03/26 04:49:51;;;;;;;92.43;43.22;;;3.80;95.90;;;;;;5015996;28;20132;-40
2022/03/26 04:52:18;;;;;;;82.65;41.85;;;3.80;96.40;;;;;;5009779;28;20046;-40
2022/03/26 04:54:48;;;;;;;88.95;42.47;;;3.70;97.10;;;;;;5015861;28;20525;-40
2022/03/26 04:57:15;;;;;;;95.85;43.38;;;3.70;97.40;;;;;;5015037;28;20045;-40
2022/03/26 04:59:42;;;;;;;89.20;41.85;;;3.60;97.70;;;;;;5014396;28;20124;-40
2022/03/26 05:02:09;;;;;;;75.78;37.85;;;3.60;97.90;;;;;;5015027;28;20062;-43
2022/03/26 05:04:36;;;;;;;78.22;38.97;;;3.60;97.70;;;;;;5016007;28;20056;-40
2022/03/26 05:07:45;;;;;;;69.45;34.65;;;3.60;97.50;;;;;;5015218;28;20125;-41
2022/03/26 05:09:50;;;;;;;91.85;42.47;;;3.60;97.40;;;;;;5014527;28;20115;-40
2022/03/26 05:12:18;;;;;;;89.32;42.85;;;3.60;97.70;;;;;;5013999;28;20163;-40
2022/03/26 05:14:45;;;;;;;73.90;35.72;;;3.50;98.50;;;;;;5013994;28;20050;-41
2022/03/26 05:17:12;;;;;;;71.72;37.00;;;3.50;98.70;;;;;;5013948;28;20053;-40
2022/03/26 05:19:38;;;;;;;76.20;37.33;;;3.40;98.50;;;;;;5015874;28;20052;-40
2022/03/26 05:22:05;;;;;;;91.00;42.85;;;3.40;98.40;;;;;;5015214;28;20052;-40
2022/03/26 05:24:33;;;;;;;72.22;35.58;;;3.40;98.30;;;;;;5013855;28;20050;-41
2022/03/26 05:27:01;;;;;;;83.72;40.55;;;3.40;98.40;;;;;;5014874;28;20512;-41
2022/03/26 05:29:29;;;;;;;95.70;44.33;;;3.40;98.50;;;;;;5013757;28;20046;-40
2022/03/26 05:31:56;;;;;;;87.07;41.70;;;3.40;98.50;;;;;;5014370;28;20433;-40
2022/03/26 05:34:23;;;;;;;86.93;42.30;;;3.40;98.80;;;;;;5014550;28;20457;-40
2022/03/26 05:36:53;;;;;;;86.93;42.13;;;3.40;98.50;;;;;;5013295;28;20054;-40
2022/03/26 05:39:19;;;;;;;93.68;45.15;;;3.50;98.40;;;;;;5014459;28;20042;-41
2022/03/26 05:41:47;;;;;;;102.13;46.65;;;3.40;98.50;;;;;;5015089;28;20128;-40
2022/03/26 05:44:15;;;;;;;95.60;45.42;;;3.50;98.90;;;;;;5012532;28;20046;-40
2022/03/26 05:46:42;;;;;;;103.78;48.00;;;3.50;99.30;;;;;;4998820;28;20367;-40
2022/03/26 05:49:09;;;;;;;96.93;46.70;;;3.50;99.70;;;;;;5014699;28;20559;-40
2022/03/26 05:51:36;;;;;;;88.80;43.10;;;3.40;99.90;;;;;;5014943;28;20045;-42
2022/03/26 05:54:03;;;;;;;99.30;48.25;;;3.40;99.90;;;;;;5014618;28;20136;-40
2022/03/26 05:56:30;;;;;;;86.55;42.10;;;3.40;99.90;;;;;;5013715;28;20056;-41
2022/03/26 05:58:56;;;;;;;79.38;39.10;;;3.40;99.90;;;;;;5013428;28;20466;-41
2022/03/26 06:01:24;;;;;;;84.55;41.97;;;3.40;99.90;;;;;;5013717;28;20052;-40
2022/03/26 06:03:51;;;;;;;90.88;43.83;;;3.40;99.80;;;;;;5014213;28;20112;-41
2022/03/26 06:06:18;;;;;;;90.18;43.25;;;3.40;99.40;;;;;;5011981;28;20045;-40
2022/03/26 06:08:44;;;;;;;97.65;46.53;;;3.50;99.30;;;;;;5013702;28;20060;-40
2022/03/26 06:11:11;;;;;;;99.72;48.15;;;3.50;99.50;;;;;;5013794;28;20500;-41
2022/03/26 06:13:38;;;;;;;87.90;41.30;;;3.60;99.90;;;;;;5013532;28;20385;-41
2022/03/26 06:16:05;;;;;;;102.55;48.05;;;3.60;99.90;;;;;;5014568;28;20045;-41
2022/03/26 06:18:33;;;;;;;85.57;39.75;;;3.60;99.70;;;;;;5012404;28;20064;-41
2022/03/26 06:21:01;;;;;;;85.75;41.45;;;3.60;99.50;;;;;;5012635;28;20473;-41
2022/03/26 06:23:28;;;;;;;89.40;46.53;;;3.70;99.30;;;;;;5014284;28;20046;-41
2022/03/26 06:25:54;;;;;;;119.88;54.67;;;3.70;99.00;;;;;;5014332;28;20121;-42
2022/03/26 06:28:21;;;;;;;133.90;60.17;;;3.80;99.30;;;;;;5013234;28;20057;-42
2022/03/26 06:30:48;;;;;;;117.90;57.70;;;3.90;99.90;;;;;;5012390;28;20042;-41
2022/03/26 06:33:16;;;;;;;137.40;64.10;;;3.90;99.90;;;;;;5012387;28;20398;-40
2022/03/26 06:35:44;;;;;;;140.68;65.38;;;4.00;99.90;;;;;;5013158;28;20080;-40
2022/03/26 06:38:11;;;;;;;152.75;72.18;;;4.10;99.90;;;;;;5012524;28;20124;-41
2022/03/26 06:40:38;;;;;;;159.48;71.22;;;4.20;99.90;;;;;;5012786;28;20054;-41
2022/03/26 06:43:05;;;;;;;155.25;70.35;;;4.30;99.90;;;;;;5013524;28;20045;-42
2022/03/26 06:45:32;;;;;;;154.95;70.20;;;4.40;99.90;;;;;;5007572;28;20042;-40
2022/03/26 06:47:58;;;;;;;168.07;74.22;;;4.60;99.90;;;;;;5013051;28;20038;-40
2022/03/26 06:50:25;;;;;;;187.85;83.82;;;4.60;99.90;;;;;;5012867;28;20085;-41
2022/03/26 06:52:54;;;;;;;185.20;84.88;;;4.80;99.90;;;;;;5013313;28;20445;-41
2022/03/26 06:55:21;;;;;;;197.57;86.65;;;4.90;99.90;;;;;;5012572;28;20137;-41
2022/03/26 06:57:48;;;;;;;202.45;86.18;;;5.00;99.90;;;;;;5013329;28;20489;-43
2022/03/26 07:00:16;;;;;;;195.35;85.25;;;5.10;99.90;;;;;;5012963;28;20042;-41
2022/03/26 07:02:43;;;;;;;183.07;84.07;;;5.30;99.90;;;;;;5012086;28;20124;-41
2022/03/26 07:05:10;;;;;;;202.43;88.60;;;5.50;99.90;;;;;;5011999;28;20045;-41
2022/03/26 07:07:37;;;;;;;196.13;87.07;;;5.60;99.90;;;;;;5012451;28;20057;-42
2022/03/26 07:10:06;;;;;;;215.27;93.85;;;5.70;99.90;;;;;;5011245;28;20045;-43
2022/03/26 07:12:33;;;;;;;205.98;92.70;;;5.90;99.90;;;;;;5000886;28;20050;-41
2022/03/26 07:15:00;;;;;;;202.50;91.65;;;6.00;99.90;;;;;;5012329;28;20046;-42
2022/03/26 07:17:26;;;;;;;199.60;91.50;;;6.20;99.90;;;;;;5013148;28;20046;-41
2022/03/26 07:19:53;;;;;;;192.45;88.90;;;6.40;99.90;;;;;;5013136;28;20050;-42
2022/03/26 07:22:20;;;;;;;210.48;93.15;;;6.50;99.90;;;;;;5012418;28;20466;-41
2022/03/26 07:24:46;;;;;;;203.27;94.15;;;6.70;99.90;;;;;;5013450;28;20068;-43
2022/03/26 07:27:14;;;;;;;191.20;88.60;;;6.90;99.90;;;;;;5011734;28;20060;-42
2022/03/26 07:29:41;;;;;;;185.52;85.43;;;7.10;99.90;;;;;;5012408;28;20045;-44
2022/03/26 07:32:08;;;;;;;194.75;89.28;;;7.30;99.90;;;;;;5011608;28;20129;-42
2022/03/26 07:34:35;;;;;;;177.52;85.22;;;7.50;99.90;;;;;;5007406;28;20057;-42
2022/03/26 07:37:02;;;;;;;178.30;84.95;;;7.70;99.90;;;;;;5009433;28;20079;-42
2022/03/26 07:39:28;;;;;;;172.88;83.38;;;7.80;99.90;;;;;;5010303;28;20045;-41
2022/03/26 07:41:55;;;;;;;163.48;81.00;;;8.00;99.90;;;;;;5011747;28;20048;-43
2022/03/26 07:44:23;;;;;;;160.70;77.72;;;8.20;99.90;;;;;;5011039;28;20046;-42
2022/03/26 07:46:50;;;;;;;152.85;75.95;;;8.40;99.90;;;;;;5010864;28;20061;-42
2022/03/26 07:49:17;;;;;;;158.75;75.85;;;8.60;99.90;;;;;;5009287;28;20056;-41
2022/03/26 07:51:43;;;;;;;158.98;76.05;;;8.80;99.90;;;;;;5007021;28;20117;-42
2022/03/26 07:54:10;;;;;;;150.45;71.07;;;9.00;99.90;;;;;;5011920;28;20052;-43
2022/03/26 07:56:37;;;;;;;132.82;66.38;;;9.10;99.90;;;;;;5011941;28;20042;-43
2022/03/26 07:59:04;;;;;;;120.80;61.08;;;9.30;99.90;;;;;;5003594;28;20046;-43
2022/03/26 08:01:32;;;;;;;125.75;61.97;;;9.50;99.90;;;;;;5007644;28;20458;-42
2022/03/26 08:03:59;;;;;;;122.28;59.33;;;9.70;99.70;;;;;;5006708;28;20038;-41
2022/03/26 08:06:25;;;;;;;131.25;62.08;;;9.90;99.10;;;;;;5008888;28;20042;-42
2022/03/26 08:08:52;;;;;;;117.78;57.17;;;10.10;98.90;;;;;;5012276;28;20042;-42
2022/03/26 08:11:19;;;;;;;119.60;57.42;;;10.30;98.50;;;;;;5011408;28;20128;-43
2022/03/26 08:13:45;;;;;;;117.05;59.50;;;10.50;98.00;;;;;;4994871;28;20046;-42
2022/03/26 08:16:12;;;;;;;107.88;53.70;;;10.60;97.50;;;;;;5007405;28;20073;-42
2022/03/26 08:18:40;;;;;;;112.50;55.38;;;10.80;96.90;;;;;;5003290;28;20057;-43
2022/03/26 08:21:09;;;;;;;113.28;55.65;;;11.00;96.40;;;;;;5011734;28;20462;-43
2022/03/26 08:23:36;;;;;;;113.53;53.83;;;11.10;96.10;;;;;;5006490;28;20433;-42
2022/03/26 08:26:22;;;;;;;103.70;52.65;;;11.30;95.80;;;;;;5005023;28;20054;-44
2022/03/26 08:28:49;;;;;;;112.75;53.80;;;11.50;95.20;;;;;;5009410;28;20042;-42
2022/03/26 08:31:17;;;;;;;107.47;54.28;;;11.70;94.80;;;;;;5011384;28;20038;-43
2022/03/26 08:33:45;;;;;;;103.45;51.55;;;11.90;94.50;;;;;;5008345;28;20045;-43
2022/03/26 08:36:12;;;;;;;105.47;52.80;;;12.10;93.80;;;;;;5007072;28;20050;-43
2022/03/26 08:38:39;;;;;;;96.72;48.45;;;12.30;93.70;;;;;;5010313;28;20041;-42
2022/03/26 08:41:06;;;;;;;87.43;45.28;;;12.40;93.40;;;;;;5010216;28;20100;-45
2022/03/26 08:43:32;;;;;;;93.75;48.60;;;12.70;92.80;;;;;;5005689;28;20137;-42
2022/03/26 08:45:59;;;;;;;93.25;45.83;;;12.80;92.50;;;;;;5009555;28;20046;-48
2022/03/26 08:48:26;;;;;;;89.38;44.53;;;13.00;92.20;;;;;;5026470;28;20042;-42
2022/03/26 08:50:54;;;;;;;83.85;43.15;;;13.10;91.70;;;;;;5011124;28;20069;-46
2022/03/26 08:53:21;;;;;;;83.80;42.95;;;13.30;90.90;;;;;;5011535;28;20068;-43
2022/03/26 08:55:48;;;;;;;83.53;41.05;;;13.50;90.60;;;;;;5010305;28;20057;-44
2022/03/26 08:58:15;;;;;;;81.75;43.15;;;13.70;89.10;;;;;;5010364;28;20049;-44
2022/03/26 09:00:41;;;;;;;96.13;44.85;;;13.80;87.90;;;;;;5015434;28;20548;-47
2022/03/26 09:03:08;;;;;;;88.93;42.47;;;14.00;87.40;;;;;;5002943;28;20058;-44
2022/03/26 09:05:35;;;;;;;90.25;45.00;;;14.20;86.80;;;;;;5006870;28;20478;-43
2022/03/26 09:08:03;;;;;;;82.28;44.28;;;14.30;86.00;;;;;;5014481;28;20046;-45
2022/03/26 09:10:30;;;;;;;85.68;43.72;;;14.50;86.00;;;;;;5012670;28;20061;-42
2022/03/26 09:12:56;;;;;;;86.00;43.63;;;14.70;85.60;;;;;;5014964;28;20042;-41
2022/03/26 09:15:23;;;;;;;74.55;39.15;;;14.70;83.00;;;;;;5014655;28;20700;-43
2022/03/26 09:17:50;;;;;;;80.47;39.45;;;14.80;82.60;;;;;;5010597;28;20459;-43
2022/03/26 09:20:16;;;;;;;79.70;40.45;;;15.00;83.00;;;;;;5013705;28;20060;-45
2022/03/26 09:22:43;;;;;;;79.32;42.72;;;15.10;81.90;;;;;;5012832;28;20081;-43
2022/03/26 09:25:12;;;;;;;78.40;40.60;;;15.30;80.50;;;;;;5013525;28;20394;-46
2022/03/26 09:27:39;;;;;;;75.82;38.83;;;15.30;79.40;;;;;;5012346;28;20453;-44
2022/03/26 09:30:07;;;;;;;67.82;34.38;;;15.40;79.70;;;;;;5011870;28;20124;-38
2022/03/26 09:32:34;;;;;;;73.80;37.67;;;15.60;79.20;;;;;;5013158;28;20050;-35
2022/03/26 09:35:00;;;;;;;72.45;37.53;;;15.70;78.60;;;;;;5015135;28;20053;-35
2022/03/26 09:37:27;;;;;;;74.57;38.40;;;15.80;77.60;;;;;;5013869;28;20045;-36
2022/03/26 09:39:54;;;;;;;69.60;36.63;;;15.90;77.80;;;;;;5012046;28;20377;-35
2022/03/26 09:42:23;;;;;;;80.13;42.05;;;16.10;77.70;;;;;;5012510;28;20062;-35
2022/03/26 09:44:50;;;;;;;78.10;36.70;;;16.20;76.70;;;;;;5013660;28;20041;-35
2022/03/26 09:47:17;;;;;;;75.38;39.25;;;16.30;76.80;;;;;;5008868;28;20054;-36
2022/03/26 09:49:43;;;;;;;66.40;36.38;;;16.30;76.90;;;;;;5013362;28;20042;-35
2022/03/26 09:52:10;;;;;;;66.50;36.28;;;16.40;76.40;;;;;;5013503;28;20064;-35
2022/03/26 09:54:37;;;;;;;67.65;36.00;;;16.50;76.70;;;;;;5012568;28;20057;-35
2022/03/26 09:57:04;;;;;;;67.07;35.40;;;16.60;76.30;;;;;;5011848;28;20046;-35
2022/03/26 09:59:32;;;;;;;63.40;35.33;;;16.70;76.10;;;;;;5012661;28;20052;-35
2022/03/26 10:01:59;;;;;;;63.17;33.97;;;16.70;76.00;;;;;;5007782;28;20129;-35
2022/03/26 10:04:26;;;;;;;67.72;36.30;;;16.80;75.80;;;;;;5012209;28;20056;-36
2022/03/26 10:06:54;;;;;;;65.78;33.95;;;16.90;75.60;;;;;;5014060;28;20114;-35
2022/03/26 10:09:34;;;;;;;54.60;32.15;;;17.00;75.90;;;;;;5010155;28;20049;-35
2022/03/26 10:12:02;;;;;;;49.67;28.00;;;17.10;75.10;;;;;;5012391;28;20050;-35
2022/03/26 10:14:43;;;;;;;44.03;25.45;;;17.20;75.20;;;;;;4998319;28;20418;-36
2022/03/26 10:17:17;;;;;;;;;;;17.30;74.30;;;;;;5001199;28;20045;-36
2022/03/26 10:19:45;;;;;;;44.13;25.42;;;17.30;74.80;;;;;;5011479;28;20004;-36
2022/03/26 10:22:29;;;;;;;46.67;25.75;;;17.30;75.20;;;;;;5011810;28;20482;-36
2022/03/26 10:24:56;;;;;;;44.35;25.42;;;17.30;76.60;;;;;;5005477;28;20045;-36
2022/03/26 10:27:22;;;;;;;40.00;24.73;;;17.50;76.10;;;;;;5012208;28;20124;-36
2022/03/26 10:29:52;;;;;;;47.20;25.23;;;17.60;76.10;;;;;;5012427;28;20059;-35
2022/03/26 10:32:43;;;;;;;37.88;23.25;;;17.60;75.10;;;;;;5008964;28;20045;-35
2022/03/26 10:35:15;;;;;;;34.13;22.05;;;17.60;74.70;;;;;;5010480;28;20100;-36
2022/03/26 10:37:51;;;;;;;35.28;20.77;;;17.50;75.90;;;;;;5022525;28;20046;-34
2022/03/26 10:40:23;;;;;;;31.77;20.10;;;17.50;74.50;;;;;;5006214;28;20094;-34
2022/03/26 10:43:04;;;;;;;35.25;21.00;;;17.50;73.90;;;;;;5010957;28;20041;-35
2022/03/26 10:45:33;;;;;;;31.85;18.48;;;17.40;74.60;;;;;;5009974;28;20119;-35
2022/03/26 10:48:01;;;;;;;26.17;18.27;;;17.40;74.60;;;;;;5011604;28;20081;-35
2022/03/26 10:50:32;;;;;;;31.95;19.13;;;17.50;75.40;;;;;;5012217;28;20064;-35
2022/03/26 10:52:59;;;;;;;33.15;19.80;;;17.60;75.20;;;;;;5012237;28;20076;-35
2022/03/26 10:55:25;;;;;;;31.85;21.85;;;17.70;74.50;;;;;;5011073;28;20462;-35
2022/03/26 10:57:52;;;;;;;35.90;21.25;;;17.70;73.80;;;;;;5008873;28;20490;-34
2022/03/26 11:00:20;;;;;;;29.75;18.30;;;17.60;73.70;;;;;;5008105;28;20049;-36
2022/03/26 11:02:48;;;;;;;30.73;20.05;;;17.60;73.80;;;;;;5003124;28;20401;-36
2022/03/26 11:05:15;;;;;;;30.27;19.25;;;17.60;73.70;;;;;;5005856;28;20045;-37
2022/03/26 11:07:42;;;;;;;30.00;16.95;;;17.80;73.90;;;;;;5008059;28;20069;-36
2022/03/26 11:10:10;;;;;;;25.13;17.50;;;17.90;73.80;;;;;;5009870;28;20188;-36
2022/03/26 11:12:39;;;;;;;25.65;16.70;;;18.10;73.30;;;;;;5007310;28;20049;-36
2022/03/26 11:15:08;;;;;;;26.55;15.10;;;18.10;73.50;;;;;;5025073;28;20049;-36
2022/03/26 11:17:40;;;;;;;23.70;15.45;;;18.20;72.90;;;;;;5010943;28;20412;-35
2022/03/26 11:20:24;;;;;;;27.38;16.83;;;18.30;72.10;;;;;;5007948;28;20383;-36
2022/03/26 11:22:58;;;;;;;25.92;14.98;;;18.30;69.80;;;;;;5011486;28;20045;-35
2022/03/26 11:25:35;;;;;;;26.45;15.45;;;18.20;71.70;;;;;;5006753;28;20037;-35
2022/03/26 11:28:20;;;;;;;25.05;15.02;;;18.40;71.20;;;;;;5007632;28;20057;-36
2022/03/26 11:30:50;;;;;;;22.00;15.48;;;18.50;71.00;;;;;;5008971;28;20054;-35
2022/03/26 11:33:18;;;;;;;24.73;16.48;;;18.50;70.10;;;;;;5008157;28;20049;-36
2022/03/26 11:35:54;;;;;;;26.42;16.80;;;18.50;70.10;;;;;;5010402;28;20095;-34
2022/03/26 11:38:21;;;;;;;25.60;16.38;;;18.50;70.50;;;;;;5011015;28;20470;-35
2022/03/26 11:40:50;;;;;;;21.25;14.43;;;18.50;70.20;;;;;;5011728;28;20052;-34
2022/03/26 11:43:19;;;;;;;26.67;15.35;;;18.50;70.40;;;;;;5011697;28;20034;-35
2022/03/26 11:51:23;;;;;;;20.45;13.73;;;18.70;68.70;;;;;;5007598;28;20046;-35
2022/03/26 11:53:52;;;;;;;20.33;14.02;;;18.80;69.20;;;;;;5023642;28;20065;-35
2022/03/26 11:56:22;;;;;;;19.88;12.77;;;18.80;69.40;;;;;;5009474;28;20069;-36
2022/03/26 11:59:04;;;;;;;25.23;13.80;;;19.00;68.30;;;;;;5012426;28;20057;-35
2022/03/26 12:01:35;;;;;;;20.58;13.63;;;19.10;68.50;;;;;;4999809;28;20038;-35
2022/03/26 12:04:11;;;;;;;18.52;12.55;;;19.10;67.70;;;;;;5005727;28;20056;-36
2022/03/26 12:06:43;;;;;;;20.02;13.32;;;19.10;67.10;;;;;;5010497;28;20056;-35
2022/03/26 12:09:10;;;;;;;17.80;12.75;;;19.10;65.90;;;;;;5008549;28;20049;-36
2022/03/26 12:11:37;;;;;;;21.05;12.07;;;19.00;67.00;;;;;;5009702;28;20069;-35
2022/03/26 12:14:04;;;;;;;17.25;11.07;;;19.00;67.60;;;;;;5010918;28;20382;-35
2022/03/26 12:16:53;;;;;;;15.27;9.57;;;19.10;67.50;;;;;;5011116;28;20125;-35
2022/03/26 12:19:36;;;;;;;15.65;9.57;;;19.20;66.30;;;;;;5005849;28;20053;-36
2022/03/26 12:22:20;;;;;;;17.38;9.20;;;19.20;64.50;;;;;;5011410;28;20149;-36
2022/03/26 12:24:47;;;;;;;12.38;8.80;;;19.10;65.20;;;;;;5010575;28;20046;-36
2022/03/26 12:27:14;;;;;;;17.30;10.35;;;19.20;66.00;;;;;;5008832;28;20397;-35
2022/03/26 12:29:40;;;;;;;14.88;9.55;;;19.20;65.30;;;;;;5010799;28;20046;-35
2022/03/26 12:32:08;;;;;;;13.68;9.13;;;19.30;65.60;;;;;;5012218;28;20129;-35
2022/03/26 12:34:35;;;;;;;14.23;9.32;;;19.30;65.00;;;;;;5015421;28;20042;-35
2022/03/26 12:37:01;;;;;;;14.30;8.57;;;19.30;64.00;;;;;;5016282;28;20049;-36
2022/03/26 12:39:29;;;;;;;12.70;8.27;;;19.20;64.90;;;;;;5015674;28;20042;-36
2022/03/26 12:41:56;;;;;;;14.13;8.57;;;19.30;63.90;;;;;;5015014;28;20046;-35